ADDS TAF Board (Experimental) INFO Settings
IDs:

KMCI - Kansas City Intl, MO, US

Issued at 1120 UTC 26 Sep 2016
Updated at: 1408 UTC 26 Sep 2016
Time1353Z 26/15Z 26/16Z 26/17Z 26/18Z 26/19Z 26/20Z 26/21Z 26/22Z 26/23Z 27/00Z 27/01Z 27/02Z 27/03Z
Type OBS PRVL PRVL PRVL PRVL PRVL PRVL PRVL PRVL PRVL PRVL PRVL PRVL PRVL
VIS 8 >6 >6 >6 >6 >6 >6 >6 >6 >6 >6 >6 >6 >6
CIG -- -- -- -- -- -- -- -- -- -- -- -- -- --
Cover CLR SCT SCT SCT SCT SCT SCT SCT SCT SCT SCT SCT SCT SCT
FltCat VFR VFR VFR VFR VFR VFR VFR VFR VFR VFR VFR VFR VFR VFR
WX -- -- -- -- -- -- -- -- -- -- -- -- -- --
WDir 290 290 290 290 290 290 290 290 290 290 290 290 290 290
WSpd 7 9 9 9 9 9 9 9 9 9 9 9 9 9
WGst -- -- -- -- -- -- -- -- -- -- -- -- -- --
R01/19
XWnd 7 9 9 9 9 9 9 9 9 9 9 9 9 9
HWnd 1 1 1 1 1 1 1 1 1 1 1 1 1 1
R09/27
XWnd 2 2 2 2 2 2 2 2 2 2 2 2 2 2
HWnd -7 -9 -9 -9 -9 -9 -9 -9 -9 -9 -9 -9 -9 -9

NOTE: TEMPO conditions in [brackets]. Keep in mind TEMPO conditions might be better (lower impact) than prevailing conditions.

Raw TAF
KMCI 261120Z 2612/2712 29009KT P6SM SCT250

Raw METAR
KMCI 261353Z 29007KT 8SM CLR 12/07 A3026 RMK AO2 SLP246 T01220072
KMCI 261253Z 29006KT 8SM CLR 11/06 A3025 RMK AO2 SLP242 T01060061
KMCI 261153Z 28007KT 7SM CLR 09/07 A3025 RMK AO2 SLP240 70010 T00940067 10139 20094 53006

METAR Board
Radar Display
Forecast Discussion

TAF Board Legend

Potential Impact
Threat None Slight Moderate High
Visibility (sm) ≥5.1 5.1>X≥3 3>X≥1 <1
Ceiling (100 ft) ≥30.1 30.1>X≥10 10>X≥5 <5
Wind Speed (kt) <10 10≤X<20 20≤X<30 ≥30
Wind Gust (kt) <15 15≤X<25 25≤X<35 ≥35
Weather No Wx Reported VCTS,-TS,-FZRA,SN TS,FZRA +TS,+FZRA,+SN